createdAt,value
2023-09-03T00:01:49.739Z,18.25
2023-09-03T00:04:48.359Z,18.26
2023-09-03T00:07:33.400Z,18.23
2023-09-03T00:10:25.358Z,18.21
2023-09-03T00:13:16.380Z,18.25
2023-09-03T00:16:01.373Z,18.21
2023-09-03T00:18:52.390Z,18.14
2023-09-03T00:21:43.375Z,18.06
2023-09-03T00:24:28.413Z,18.02
2023-09-03T00:27:20.382Z,18.00
2023-09-03T00:30:05.696Z,18.01
2023-09-03T00:32:57.416Z,17.95
2023-09-03T00:35:44.832Z,17.89
2023-09-03T00:38:38.383Z,17.94
2023-09-03T00:41:23.695Z,17.87
2023-09-03T00:44:15.370Z,17.90
2023-09-03T00:47:00.511Z,17.83
2023-09-03T00:49:52.378Z,17.82
2023-09-03T00:52:38.257Z,17.82
2023-09-03T00:55:32.668Z,17.80
2023-09-03T00:58:26.388Z,17.79
2023-09-03T01:01:18.421Z,17.76
2023-09-03T01:04:10.437Z,17.74
2023-09-03T01:06:55.585Z,17.78
2023-09-03T01:09:48.382Z,17.70
2023-09-03T01:12:41.580Z,17.81
2023-09-03T01:15:37.428Z,17.82
2023-09-03T01:18:25.352Z,17.78
2023-09-03T01:21:45.381Z,17.73
2023-09-03T01:25:12.414Z,17.49
2023-09-03T01:28:26.639Z,17.55
2023-09-03T01:31:24.440Z,17.48
2023-09-03T01:34:10.465Z,17.51
2023-09-03T01:37:02.410Z,17.60
2023-09-03T01:39:47.769Z,17.55
2023-09-03T01:42:39.408Z,17.58
2023-09-03T01:45:44.414Z,17.58
2023-09-03T01:49:00.953Z,17.48
2023-09-03T01:52:05.462Z,17.38
2023-09-03T01:54:59.401Z,17.41
2023-09-03T01:57:50.085Z,17.36
2023-09-03T02:00:41.432Z,17.39
2023-09-03T02:03:34.411Z,17.27
2023-09-03T02:06:32.404Z,17.39
2023-09-03T02:09:17.674Z,17.41
2023-09-03T02:12:09.415Z,17.38
2023-09-03T02:14:54.442Z,17.36
2023-09-03T02:17:45.437Z,17.37
2023-09-03T02:20:37.408Z,17.27
2023-09-03T02:23:22.317Z,17.30
2023-09-03T02:26:15.404Z,17.33
2023-09-03T02:29:00.641Z,17.30
2023-09-03T02:31:52.415Z,17.23
2023-09-03T02:34:38.172Z,17.20
2023-09-03T02:37:29.419Z,17.20
2023-09-03T02:40:14.354Z,17.18
2023-09-03T02:43:06.425Z,17.25
2023-09-03T02:45:51.916Z,17.20
2023-09-03T02:48:43.431Z,17.18
2023-09-03T02:51:28.880Z,17.09
2023-09-03T02:54:20.415Z,17.01
2023-09-03T02:57:05.542Z,17.04
2023-09-03T02:59:57.418Z,17.04
2023-09-03T03:02:42.797Z,16.97
2023-09-03T03:05:41.434Z,16.84
2023-09-03T03:08:26.653Z,16.91
2023-09-03T03:11:23.432Z,16.97
2023-09-03T03:14:08.610Z,17.08
2023-09-03T03:17:00.425Z,16.93
2023-09-03T03:19:49.719Z,16.93
2023-09-03T03:22:41.440Z,17.03
2023-09-03T03:25:26.474Z,16.95
2023-09-03T03:28:18.907Z,16.95
2023-09-03T03:31:20.625Z,16.83
2023-09-03T03:34:12.537Z,16.77
2023-09-03T03:37:04.429Z,16.79
2023-09-03T03:39:57.428Z,16.78
2023-09-03T03:42:42.275Z,16.73
2023-09-03T03:45:34.487Z,16.81
2023-09-03T03:48:20.123Z,16.59
2023-09-03T03:51:12.475Z,16.59
2023-09-03T03:54:06.453Z,16.63
2023-09-03T03:56:51.553Z,16.57
2023-09-03T03:59:43.454Z,16.47
2023-09-03T04:02:28.673Z,16.45
2023-09-03T04:05:27.447Z,16.43
2023-09-03T04:08:12.682Z,16.51
2023-09-03T04:11:11.459Z,16.57
2023-09-03T04:13:59.298Z,16.51
2023-09-03T04:16:51.517Z,16.44
2023-09-03T04:19:36.668Z,16.31
2023-09-03T04:22:28.461Z,16.46
2023-09-03T04:25:13.679Z,16.50
2023-09-03T04:28:05.458Z,16.42
2023-09-03T04:30:57.851Z,16.56
2023-09-03T04:33:49.478Z,16.50
2023-09-03T04:36:35.101Z,16.44
2023-09-03T04:39:26.474Z,16.45
2023-09-03T04:42:18.475Z,16.36
2023-09-03T04:45:03.904Z,16.34
2023-09-03T04:47:55.486Z,16.40
2023-09-03T04:50:40.600Z,16.32
2023-09-03T04:53:32.461Z,16.42
2023-09-03T04:56:17.580Z,16.44
2023-09-03T04:59:09.481Z,16.36
2023-09-03T05:01:54.388Z,16.33
2023-09-03T05:04:53.480Z,16.18
2023-09-03T05:07:45.184Z,16.22
2023-09-03T05:10:36.649Z,16.26
2023-09-03T05:13:21.575Z,16.39
2023-09-03T05:16:13.516Z,16.32
2023-09-03T05:19:05.454Z,16.30
2023-09-03T05:21:57.470Z,16.36
2023-09-03T05:24:43.147Z,16.41
2023-09-03T05:27:38.993Z,16.51
2023-09-03T05:30:24.009Z,16.63
2023-09-03T05:33:15.505Z,16.54
2023-09-03T05:36:07.486Z,16.46
2023-09-03T05:38:58.477Z,16.70
2023-09-03T05:41:43.292Z,16.78
2023-09-03T05:44:34.490Z,16.91
2023-09-03T05:47:19.952Z,16.81
2023-09-03T05:50:11.460Z,16.82
2023-09-03T05:52:56.360Z,16.85
2023-09-03T05:55:50.470Z,17.03
2023-09-03T05:58:36.003Z,17.05
2023-09-03T06:01:27.476Z,17.09
2023-09-03T06:04:20.945Z,17.27
2023-09-03T06:07:19.493Z,17.31
2023-09-03T06:10:05.363Z,17.42
2023-09-03T06:12:56.499Z,17.33
2023-09-03T06:15:41.821Z,17.53
2023-09-03T06:18:33.629Z,17.55
2023-09-03T06:21:18.802Z,17.67
2023-09-03T06:24:10.504Z,17.76
2023-09-03T06:26:57.934Z,17.53
2023-09-03T06:29:49.507Z,17.65
2023-09-03T06:32:34.760Z,17.64
2023-09-03T06:35:26.513Z,17.80
2023-09-03T06:38:11.424Z,17.95
2023-09-03T06:41:02.496Z,17.97
2023-09-03T06:43:50.181Z,17.46
2023-09-03T06:46:41.538Z,17.62
2023-09-03T06:49:27.260Z,17.93
2023-09-03T06:52:18.515Z,17.99
2023-09-03T06:55:03.968Z,18.04
2023-09-03T06:57:55.519Z,18.04
2023-09-03T07:00:40.741Z,18.08
2023-09-03T07:03:32.611Z,18.04
2023-09-03T07:06:24.064Z,18.00
2023-09-03T07:09:18.512Z,18.08
2023-09-03T07:12:04.654Z,18.08
2023-09-03T07:14:56.569Z,18.27
2023-09-03T07:17:41.638Z,17.88
2023-09-03T07:20:32.507Z,17.84
2023-09-03T07:23:17.760Z,18.13
2023-09-03T07:26:12.515Z,18.25
2023-09-03T07:28:57.755Z,18.12
2023-09-03T07:31:51.521Z,17.85
2023-09-03T07:34:36.722Z,17.96
2023-09-03T07:37:28.516Z,18.07
2023-09-03T07:40:13.781Z,18.15
2023-09-03T07:43:05.533Z,18.24
2023-09-03T07:45:50.446Z,18.18
2023-09-03T07:48:41.549Z,18.23
2023-09-03T07:51:26.973Z,18.51
2023-09-03T07:54:18.539Z,18.43
2023-09-03T07:57:03.738Z,18.31
2023-09-03T07:59:59.525Z,18.43
2023-09-03T08:02:51.554Z,18.66
2023-09-03T08:05:43.512Z,18.69
2023-09-03T08:08:36.544Z,18.38
2023-09-03T08:11:22.269Z,18.28
2023-09-03T08:14:16.569Z,18.19
2023-09-03T08:17:07.558Z,18.13
2023-09-03T08:20:20.551Z,18.37
2023-09-03T08:23:12.545Z,18.65
2023-09-03T08:26:04.581Z,18.95
2023-09-03T08:28:52.770Z,19.13
2023-09-03T08:31:44.588Z,18.84
2023-09-03T08:34:29.593Z,19.02
2023-09-03T08:37:21.591Z,18.55
2023-09-03T08:40:07.999Z,18.53
2023-09-03T08:43:00.538Z,18.70
2023-09-03T08:45:52.413Z,18.96
2023-09-03T08:48:44.613Z,19.20
2023-09-03T08:51:32.748Z,19.22
2023-09-03T08:54:24.551Z,18.64
2023-09-03T08:57:10.440Z,18.98
2023-09-03T09:00:03.565Z,18.79
2023-09-03T09:02:49.511Z,18.84
2023-09-03T09:05:41.557Z,18.79
2023-09-03T09:08:39.554Z,18.99
2023-09-03T09:11:29.896Z,19.05
2023-09-03T09:14:37.566Z,19.22
2023-09-03T09:17:22.587Z,19.63
2023-09-03T09:20:16.628Z,19.72
2023-09-03T09:23:01.729Z,21.06
2023-09-03T09:25:53.572Z,20.24
2023-09-03T09:28:59.745Z,19.41
2023-09-03T09:31:51.567Z,20.02
2023-09-03T09:34:43.351Z,20.29
2023-09-03T09:37:47.545Z,19.88
2023-09-03T09:40:33.285Z,20.00
2023-09-03T09:43:24.734Z,20.15
2023-09-03T09:46:25.772Z,19.81
2023-09-03T09:49:17.565Z,20.56
2023-09-03T09:52:09.579Z,21.93
2023-09-03T09:54:54.723Z,22.48
2023-09-03T09:57:46.586Z,23.82
2023-09-03T10:00:44.523Z,24.31
2023-09-03T10:03:55.695Z,24.52
2023-09-03T10:06:55.590Z,25.84
2023-09-03T10:09:42.080Z,25.25
2023-09-03T10:12:33.736Z,23.79
2023-09-03T10:15:20.853Z,22.37
2023-09-03T10:18:15.594Z,24.22
2023-09-03T10:21:02.082Z,24.99
2023-09-03T10:23:56.625Z,25.28
2023-09-03T10:26:46.150Z,25.29
2023-09-03T10:29:41.570Z,26.33
2023-09-03T10:32:28.220Z,26.29
2023-09-03T10:35:20.592Z,25.18
2023-09-03T10:38:33.317Z,24.73
2023-09-03T10:41:31.583Z,24.98
2023-09-03T10:44:16.834Z,25.42
2023-09-03T10:47:08.589Z,26.34
2023-09-03T10:49:55.645Z,24.84
2023-09-03T10:52:47.594Z,24.18
2023-09-03T10:55:32.909Z,23.52
2023-09-03T10:58:29.654Z,23.86
2023-09-03T11:01:21.776Z,25.39
2023-09-03T11:04:13.633Z,25.89
2023-09-03T11:07:23.635Z,27.34
2023-09-03T11:10:27.614Z,27.06
2023-09-03T11:13:36.120Z,25.13
2023-09-03T11:16:33.030Z,24.07
2023-09-03T11:19:24.609Z,25.72
2023-09-03T11:22:09.922Z,23.69
2023-09-03T11:25:01.619Z,24.30
2023-09-03T11:27:50.235Z,25.18
2023-09-03T11:30:42.660Z,24.93
2023-09-03T11:33:29.319Z,24.22
2023-09-03T11:36:20.627Z,25.78
2023-09-03T11:39:15.078Z,25.80
2023-09-03T11:42:06.637Z,24.95
2023-09-03T11:44:51.858Z,25.49
2023-09-03T11:47:46.677Z,23.98
2023-09-03T11:50:31.958Z,23.41
2023-09-03T11:53:23.846Z,23.13
2023-09-03T11:56:19.648Z,22.85
2023-09-03T11:59:05.870Z,23.03
2023-09-03T12:01:59.649Z,23.56
2023-09-03T12:04:51.701Z,23.46
2023-09-03T12:07:50.607Z,23.33
2023-09-03T12:10:35.716Z,23.38
2023-09-03T12:13:46.632Z,22.81
2023-09-03T12:16:31.488Z,22.79
2023-09-03T12:19:22.646Z,22.70
2023-09-03T12:22:08.752Z,23.01
2023-09-03T12:25:00.630Z,23.01
2023-09-03T12:27:49.520Z,22.91
2023-09-03T12:31:10.757Z,22.86
2023-09-03T12:33:55.679Z,23.03
2023-09-03T12:37:07.641Z,22.86
2023-09-03T12:39:52.715Z,22.95
2023-09-03T12:42:44.765Z,23.34
2023-09-03T12:45:29.812Z,23.45
2023-09-03T12:48:21.653Z,22.75
2023-09-03T12:51:13.646Z,23.20
2023-09-03T12:54:04.667Z,22.84
2023-09-03T12:56:57.649Z,22.51
2023-09-03T12:59:50.630Z,22.56
2023-09-03T13:02:41.758Z,22.65
2023-09-03T13:05:32.756Z,22.96
2023-09-03T13:08:30.662Z,22.76
2023-09-03T13:11:22.643Z,22.94
2023-09-03T13:14:14.695Z,23.29
2023-09-03T13:16:59.966Z,23.35
2023-09-03T13:19:51.674Z,23.55
2023-09-03T13:22:42.662Z,23.09
2023-09-03T13:25:35.117Z,23.34
2023-09-03T13:28:26.677Z,23.15
2023-09-03T13:31:11.914Z,23.33
2023-09-03T13:34:03.670Z,23.20
2023-09-03T13:36:50.241Z,23.32
2023-09-03T13:39:42.681Z,23.17
2023-09-03T13:42:27.540Z,23.26
2023-09-03T13:45:20.674Z,23.13
2023-09-03T13:48:06.514Z,22.85
2023-09-03T13:51:02.657Z,22.86
2023-09-03T13:53:48.972Z,22.81
2023-09-03T13:56:42.600Z,22.81
2023-09-03T13:59:27.662Z,22.88
2023-09-03T14:02:21.700Z,23.06
2023-09-03T14:05:13.767Z,23.36
2023-09-03T14:08:11.690Z,23.35
2023-09-03T14:11:00.477Z,23.55
2023-09-03T14:13:54.693Z,23.51
2023-09-03T14:16:39.945Z,23.38
2023-09-03T14:19:31.691Z,23.23
2023-09-03T14:22:23.688Z,23.43
2023-09-03T14:25:14.693Z,23.42
2023-09-03T14:28:05.697Z,23.36
2023-09-03T14:30:50.691Z,23.38
2023-09-03T14:33:41.697Z,23.52
2023-09-03T14:36:26.915Z,23.61
2023-09-03T14:39:20.427Z,23.34
2023-09-03T14:42:18.300Z,23.26
2023-09-03T14:45:09.711Z,23.03
2023-09-03T14:47:54.958Z,23.05
2023-09-03T14:50:49.727Z,22.91
2023-09-03T14:53:34.814Z,22.96
2023-09-03T14:56:27.697Z,22.91
2023-09-03T14:59:12.847Z,22.85
2023-09-03T15:02:04.740Z,23.06
2023-09-03T15:04:55.713Z,22.97
2023-09-03T15:07:47.752Z,22.91
2023-09-03T15:10:41.728Z,22.85
2023-09-03T15:13:28.462Z,22.86
2023-09-03T15:16:20.728Z,22.86
2023-09-03T15:19:12.744Z,22.83
2023-09-03T15:21:57.720Z,22.85
2023-09-03T15:24:50.720Z,22.89
2023-09-03T15:27:42.721Z,22.92
2023-09-03T15:30:33.531Z,22.92
2023-09-03T15:33:25.727Z,22.91
2023-09-03T15:36:10.939Z,22.90
2023-09-03T15:39:02.724Z,22.89
2023-09-03T15:41:50.770Z,22.76
2023-09-03T15:44:42.726Z,22.90
2023-09-03T15:47:27.858Z,22.89
2023-09-03T15:50:19.749Z,22.90
2023-09-03T15:53:04.913Z,22.85
2023-09-03T15:55:56.755Z,22.84
2023-09-03T15:58:48.730Z,22.86
2023-09-03T16:01:33.875Z,23.10
2023-09-03T16:04:25.739Z,23.22
2023-09-03T16:07:24.728Z,23.18
2023-09-03T16:10:10.071Z,23.17
2023-09-03T16:13:04.725Z,23.23
2023-09-03T16:15:56.775Z,23.20
2023-09-03T16:18:47.767Z,22.91
2023-09-03T16:21:38.111Z,22.50
2023-09-03T16:24:29.750Z,22.44
2023-09-03T16:27:14.706Z,22.38
2023-09-03T16:30:05.757Z,22.35
2023-09-03T16:32:50.946Z,22.30
2023-09-03T16:35:42.756Z,22.13
2023-09-03T16:38:29.164Z,22.10
2023-09-03T16:41:20.746Z,22.13
2023-09-03T16:44:06.103Z,21.96
2023-09-03T16:46:57.798Z,21.78
2023-09-03T16:49:42.704Z,21.88
2023-09-03T16:52:34.810Z,21.87
2023-09-03T16:55:21.129Z,21.72
2023-09-03T16:58:12.765Z,21.58
2023-09-03T17:01:04.789Z,21.51
2023-09-03T17:03:53.230Z,21.69
2023-09-03T17:06:44.771Z,21.62
2023-09-03T17:09:35.884Z,21.30
2023-09-03T17:12:27.745Z,21.13
2023-09-03T17:15:12.762Z,21.13
2023-09-03T17:18:04.811Z,21.02
2023-09-03T17:20:49.985Z,20.92
2023-09-03T17:23:45.803Z,20.84
2023-09-03T17:26:30.754Z,20.82
2023-09-03T17:29:22.765Z,20.74
2023-09-03T17:32:08.090Z,20.89
2023-09-03T17:35:04.037Z,20.74
2023-09-03T17:37:58.160Z,20.60
2023-09-03T17:40:43.170Z,20.57
2023-09-03T17:43:34.789Z,20.49
2023-09-03T17:46:27.864Z,20.41
2023-09-03T17:49:12.627Z,20.26
2023-09-03T17:52:03.761Z,20.12
2023-09-03T17:54:51.779Z,20.02
2023-09-03T17:57:43.773Z,20.09
2023-09-03T18:00:35.801Z,20.01
2023-09-03T18:03:27.857Z,19.90
2023-09-03T18:06:33.793Z,19.79
2023-09-03T18:09:25.781Z,19.83
2023-09-03T18:12:16.785Z,19.71
2023-09-03T18:15:01.685Z,19.58
2023-09-03T18:17:52.810Z,19.56
2023-09-03T18:20:43.801Z,19.66
2023-09-03T18:23:28.734Z,19.77
2023-09-03T18:26:19.791Z,19.75
2023-09-03T18:29:07.233Z,19.62
2023-09-03T18:32:00.680Z,19.42
2023-09-03T18:34:45.823Z,19.23
2023-09-03T18:37:37.789Z,19.22
2023-09-03T18:40:23.018Z,19.17
2023-09-03T18:43:14.881Z,19.16
2023-09-03T18:46:00.655Z,19.08
2023-09-03T18:48:51.802Z,19.02
2023-09-03T18:51:36.967Z,18.94
2023-09-03T18:54:28.796Z,18.90
2023-09-03T18:57:15.858Z,18.82
2023-09-03T19:00:08.812Z,18.77
2023-09-03T19:02:53.752Z,18.72
2023-09-03T19:05:50.351Z,18.66
2023-09-03T19:08:42.037Z,18.70
2023-09-03T19:11:36.815Z,18.72
2023-09-03T19:14:22.033Z,18.66
2023-09-03T19:17:20.788Z,18.59
2023-09-03T19:20:08.599Z,18.57
2023-09-03T19:23:01.694Z,18.53
2023-09-03T19:26:00.970Z,18.53
2023-09-03T19:28:46.676Z,18.51
2023-09-03T19:31:38.825Z,18.52
2023-09-03T19:34:25.977Z,18.43
2023-09-03T19:37:17.821Z,18.44
2023-09-03T19:40:09.827Z,18.43
2023-09-03T19:42:54.843Z,18.37
2023-09-03T19:45:48.853Z,18.44
2023-09-03T19:48:44.653Z,18.41
2023-09-03T19:51:29.988Z,18.32
2023-09-03T19:54:21.818Z,18.32
2023-09-03T19:57:06.742Z,18.24
2023-09-03T20:00:00.841Z,18.19
2023-09-03T20:02:51.312Z,18.14
2023-09-03T20:05:46.829Z,18.47
2023-09-03T20:08:38.956Z,18.30
2023-09-03T20:11:30.885Z,18.21
2023-09-03T20:14:15.801Z,18.14
2023-09-03T20:17:07.839Z,17.99
2023-09-03T20:19:56.358Z,17.92
2023-09-03T20:22:50.883Z,17.87
2023-09-03T20:25:37.723Z,17.72
2023-09-03T20:28:43.571Z,17.51
2023-09-03T20:31:36.894Z,17.42
2023-09-03T20:34:23.279Z,17.47
2023-09-03T20:37:14.859Z,17.43
2023-09-03T20:39:59.757Z,17.41
2023-09-03T20:42:51.844Z,17.40
2023-09-03T20:45:37.058Z,17.41
2023-09-03T20:48:28.871Z,17.43
2023-09-03T20:51:13.868Z,17.41
2023-09-03T20:54:09.720Z,17.35
2023-09-03T20:56:55.010Z,17.35
2023-09-03T20:59:48.842Z,17.36
2023-09-03T21:02:39.624Z,17.32
2023-09-03T21:05:31.842Z,17.18
2023-09-03T21:08:25.031Z,17.13
2023-09-03T21:11:16.849Z,17.11
2023-09-03T21:14:03.603Z,17.04
2023-09-03T21:16:54.892Z,16.94
2023-09-03T21:19:39.806Z,16.96
2023-09-03T21:22:30.849Z,16.86
2023-09-03T21:25:24.862Z,16.80
2023-09-03T21:28:09.892Z,16.83
2023-09-03T21:31:00.851Z,16.81
2023-09-03T21:33:49.862Z,16.78
2023-09-03T21:36:41.852Z,16.73
2023-09-03T21:39:26.826Z,16.70
2023-09-03T21:42:18.857Z,16.70
2023-09-03T21:45:10.862Z,16.63
2023-09-03T21:48:03.927Z,16.64
2023-09-03T21:51:02.631Z,16.56
2023-09-03T21:54:04.863Z,16.52
2023-09-03T21:56:58.125Z,16.57
2023-09-03T21:59:49.856Z,16.48
2023-09-03T22:02:49.947Z,16.37
2023-09-03T22:05:40.903Z,16.46
2023-09-03T22:08:38.873Z,16.29
2023-09-03T22:11:24.210Z,16.26
2023-09-03T22:14:15.887Z,16.20
2023-09-03T22:17:05.341Z,16.26
2023-09-03T22:19:58.882Z,16.25
2023-09-03T22:22:48.901Z,16.25
2023-09-03T22:25:40.891Z,16.30
2023-09-03T22:28:32.868Z,16.12
2023-09-03T22:31:26.995Z,16.06
2023-09-03T22:34:11.757Z,16.03
2023-09-03T22:37:03.869Z,16.04
2023-09-03T22:39:48.921Z,16.01
2023-09-03T22:42:40.919Z,15.93
2023-09-03T22:45:26.148Z,15.91
2023-09-03T22:48:17.901Z,15.89
2023-09-03T22:51:03.353Z,15.94
2023-09-03T22:53:54.885Z,15.88
2023-09-03T22:56:40.250Z,15.74
2023-09-03T22:59:31.884Z,15.72
2023-09-03T23:02:17.278Z,15.71
2023-09-03T23:05:08.877Z,15.70
2023-09-03T23:08:02.176Z,15.70
2023-09-03T23:10:53.878Z,15.72
2023-09-03T23:13:41.839Z,15.72
2023-09-03T23:16:41.819Z,15.76
2023-09-03T23:19:26.970Z,15.77
2023-09-03T23:22:21.906Z,15.75
2023-09-03T23:25:10.001Z,15.72
2023-09-03T23:28:04.898Z,15.66
2023-09-03T23:30:50.099Z,15.68
2023-09-03T23:33:41.881Z,15.58
2023-09-03T23:36:27.104Z,15.62
2023-09-03T23:39:21.903Z,15.76
2023-09-03T23:42:07.219Z,15.69
2023-09-03T23:45:06.906Z,15.63
2023-09-03T23:47:52.169Z,15.62
2023-09-03T23:50:43.876Z,15.64
2023-09-03T23:53:30.491Z,15.53
2023-09-03T23:56:24.909Z,15.59
2023-09-03T23:59:09.802Z,15.42
